Time;durP1;ratioP1;P1;durP2;ratioP2;P2;SDS_P1;SDS_P2;PMS_P1;PMS_P2;Temp;Humidity;BMP_temperature;BMP_pressure;BME280_temperature;BME280_humidity;BME280_pressure;Samples;Min_cycle;Max_cycle;Signal;HPM_P1;HPM_P2
2024/01/16 00:00:14;;;;;;;;;;;;;;;21.30;28.39;100728.50;5031669;28;19917;-73
2024/01/16 00:02:40;;;;;;;;;;;;;;;21.27;28.15;100725.34;5039130;28;19964;-72
2024/01/16 00:05:05;;;;;;;;;;;;;;;21.24;28.23;100731.97;5037217;28;20031;-73
2024/01/16 00:07:32;;;;;;;;;;;;;;;21.22;28.51;100734.84;5041867;28;20037;-73
2024/01/16 00:09:58;;;;;;;;;;;;;;;21.21;28.56;100744.00;5048048;28;19989;-73
2024/01/16 00:12:25;;;;;;;;;;;;;;;21.20;28.57;100739.63;5036870;28;20474;-73
2024/01/16 00:14:50;;;;;;;;;;;;;;;21.18;28.67;100747.06;5035311;28;19925;-73
2024/01/16 00:17:15;;;;;;;;;;;;;;;21.17;28.44;100734.59;5044733;28;19917;-73
2024/01/16 00:19:40;;;;;;;;;;;;;;;21.15;28.52;100728.53;5044158;28;19924;-73
2024/01/16 00:22:06;;;;;;;;;;;;;;;21.13;28.34;100722.47;5029871;28;19924;-73
2024/01/16 00:24:31;;;;;;;;;;;;;;;21.12;28.44;100728.91;5029859;28;19961;-73
2024/01/16 00:26:56;;;;;;;;;;;;;;;21.12;28.56;100726.19;5042736;28;19995;-73
2024/01/16 00:29:21;;;;;;;;;;;;;;;21.12;28.63;100725.38;5035707;28;19917;-73
2024/01/16 00:31:47;;;;;;;;;;;;;;;21.10;28.43;100728.25;5046944;28;19920;-73
2024/01/16 00:34:12;;;;;;;;;;;;;;;21.09;28.42;100726.56;5046437;28;19948;-73
2024/01/16 00:36:37;;;;;;;;;;;;;;;21.09;28.49;100723.88;5040507;28;19973;-73
2024/01/16 00:39:03;;;;;;;;;;;;;;;21.08;28.43;100738.41;5036658;28;19920;-72
2024/01/16 00:41:28;;;;;;;;;;;;;;;21.09;28.39;100739.25;5034194;28;19914;-74
2024/01/16 00:43:53;;;;;;;;;;;;;;;21.06;28.78;100735.03;5038052;28;20340;-74
2024/01/16 00:46:18;;;;;;;;;;;;;;;21.06;28.47;100734.22;5033511;28;19920;-73
2024/01/16 00:48:43;;;;;;;;;;;;;;;21.05;28.43;100737.94;5033286;28;20625;-73
2024/01/16 00:51:09;;;;;;;;;;;;;;;21.04;28.44;100737.09;5032693;28;20637;-74
2024/01/16 00:53:39;;;;;;;;;;;;;;;21.02;28.42;100744.56;5047690;28;19964;-73
2024/01/16 00:56:05;;;;;;;;;;;;;;;21.01;28.49;100748.28;5037498;28;19940;-73
2024/01/16 00:58:30;;;;;;;;;;;;;;;21.01;28.43;100745.59;5032409;28;19918;-73
2024/01/16 01:00:55;;;;;;;;;;;;;;;21.02;28.51;100749.13;5036055;28;19913;-73
2024/01/16 01:03:20;;;;;;;;;;;;;;;21.02;28.58;100757.22;5046875;28;19913;-72
2024/01/16 01:05:45;;;;;;;;;;;;;;;21.00;28.42;100753.88;5050432;28;19925;-73
2024/01/16 01:08:11;;;;;;;;;;;;;;;20.99;28.61;100754.94;5045205;28;19948;-73
2024/01/16 01:10:36;;;;;;;;;;;;;;;20.99;28.30;100754.94;5039855;28;20674;-73
2024/01/16 01:13:01;;;;;;;;;;;;;;;21.00;28.67;100756.59;5030998;28;20408;-73
2024/01/16 01:15:26;;;;;;;;;;;;;;;20.98;28.63;100756.75;5039386;28;19951;-73
2024/01/16 01:17:52;;;;;;;;;;;;;;;20.97;28.53;100758.63;5030467;28;19917;-73
2024/01/16 01:20:17;;;;;;;;;;;;;;;20.97;28.43;100749.69;5044706;28;19917;-73
2024/01/16 01:22:44;;;;;;;;;;;;;;;20.97;28.34;100746.97;5043172;28;19913;-73
2024/01/16 01:25:09;;;;;;;;;;;;;;;20.97;28.46;100752.38;5033646;28;19913;-74
2024/01/16 01:27:35;;;;;;;;;;;;;;;20.96;28.46;100746.16;5036390;28;19960;-72
2024/01/16 01:30:00;;;;;;;;;;;;;;;20.96;28.66;100748.00;5046619;28;20306;-73
2024/01/16 01:32:26;;;;;;;;;;;;;;;20.95;28.37;100746.34;5042527;28;19917;-72
2024/01/16 01:34:52;;;;;;;;;;;;;;;20.93;28.48;100754.63;5041127;28;19917;-73
2024/01/16 01:37:17;;;;;;;;;;;;;;;20.93;28.23;100756.47;5034655;28;19924;-73
2024/01/16 01:39:42;;;;;;;;;;;;;;;20.94;28.28;100750.91;5032841;28;19914;-73
2024/01/16 01:42:07;;;;;;;;;;;;;;;20.95;28.27;100749.03;5034037;28;19920;-73
2024/01/16 01:44:32;;;;;;;;;;;;;;;20.94;28.15;100747.34;5046217;28;19917;-73
2024/01/16 01:46:57;;;;;;;;;;;;;;;20.94;28.41;100747.34;5041032;28;19913;-73
2024/01/16 01:49:23;;;;;;;;;;;;;;;20.93;28.36;100746.50;5031346;28;19989;-73
2024/01/16 01:51:48;;;;;;;;;;;;;;;20.94;28.41;100747.34;5033126;28;19944;-73
2024/01/16 01:54:13;;;;;;;;;;;;;;;20.94;28.23;100747.34;5026663;28;19944;-72
2024/01/16 01:56:39;;;;;;;;;;;;;;;20.95;28.40;100746.34;5038804;28;19944;-72
2024/01/16 01:59:04;;;;;;;;;;;;;;;20.95;28.35;100749.88;5046106;28;19920;-73
2024/01/16 02:01:29;;;;;;;;;;;;;;;20.97;28.31;100752.38;5032136;28;19921;-73
2024/01/16 02:03:56;;;;;;;;;;;;;;;20.97;28.30;100747.81;5041300;28;19913;-73
2024/01/16 02:06:21;;;;;;;;;;;;;;;20.98;28.50;100745.94;5037830;28;19932;-73
2024/01/16 02:08:46;;;;;;;;;;;;;;;20.99;28.13;100749.53;5029066;28;19917;-73
2024/01/16 02:11:12;;;;;;;;;;;;;;;21.00;28.26;100753.88;5031838;28;19963;-73
2024/01/16 02:13:37;;;;;;;;;;;;;;;20.99;28.45;100758.47;5039250;28;19921;-73
2024/01/16 02:16:03;;;;;;;;;;;;;;;20.99;28.19;100760.34;5047653;28;19959;-73
2024/01/16 02:18:28;;;;;;;;;;;;;;;20.99;28.44;100758.47;5046119;28;20136;-73
2024/01/16 02:20:53;;;;;;;;;;;;;;;20.99;28.24;100763.03;5040398;28;20378;-72
2024/01/16 02:23:24;;;;;;;;;;;;;;;20.99;28.18;100755.75;5036914;28;19913;-73
2024/01/16 02:25:50;;;;;;;;;;;;;;;21.00;28.21;100762.00;5035837;28;19987;-73
2024/01/16 02:28:15;;;;;;;;;;;;;;;21.00;28.34;100757.44;5031651;28;19921;-72
2024/01/16 02:30:41;;;;;;;;;;;;;;;20.99;28.18;100753.06;5032002;28;19913;-73
2024/01/16 02:33:07;;;;;;;;;;;;;;;21.02;28.13;100752.66;5047631;28;19913;-73
2024/01/16 02:35:32;;;;;;;;;;;;;;;21.02;28.42;100752.66;5040743;28;19913;-73
2024/01/16 02:37:57;;;;;;;;;;;;;;;21.04;28.37;100757.91;5040703;28;19999;-73
2024/01/16 02:40:22;;;;;;;;;;;;;;;21.04;28.29;100760.59;5049875;28;19917;-72
2024/01/16 02:42:48;;;;;;;;;;;;;;;21.04;28.14;100769.53;5044902;28;19912;-72
2024/01/16 02:45:13;;;;;;;;;;;;;;;21.05;28.16;100763.09;5040848;28;19920;-73
2024/01/16 02:47:38;;;;;;;;;;;;;;;21.06;28.11;100763.94;5039293;28;19969;-72
2024/01/16 02:50:03;;;;;;;;;;;;;;;21.07;28.13;100763.78;5046519;28;19964;-73
2024/01/16 02:52:28;;;;;;;;;;;;;;;21.09;28.03;100766.28;5030933;28;19924;-73
2024/01/16 02:54:54;;;;;;;;;;;;;;;21.10;28.23;100767.97;5040559;28;20251;-73
2024/01/16 02:57:19;;;;;;;;;;;;;;;21.09;27.98;100775.22;5041218;28;19937;-73
2024/01/16 02:59:44;;;;;;;;;;;;;;;21.11;28.04;100775.91;5038263;28;19932;-73
2024/01/16 03:02:09;;;;;;;;;;;;;;;21.11;28.03;100773.19;5046768;28;19961;-73
2024/01/16 03:04:35;;;;;;;;;;;;;;;21.11;27.92;100772.31;5036299;28;19917;-73
2024/01/16 03:07:00;;;;;;;;;;;;;;;21.11;28.21;100772.31;5033918;28;19984;-73
2024/01/16 03:09:25;;;;;;;;;;;;;;;21.13;28.17;100770.28;5045151;28;19921;-73
2024/01/16 03:11:50;;;;;;;;;;;;;;;21.13;28.04;100773.00;5046983;28;19963;-72
2024/01/16 03:14:15;;;;;;;;;;;;;;;21.14;27.85;100774.66;5052803;28;19924;-73
2024/01/16 03:16:40;;;;;;;;;;;;;;;21.16;28.09;100775.34;5040824;28;19914;-73
2024/01/16 03:19:06;;;;;;;;;;;;;;;21.17;28.09;100767.03;5033041;28;20002;-73
2024/01/16 03:21:31;;;;;;;;;;;;;;;21.17;27.91;100768.91;5030070;28;19917;-73
2024/01/16 03:23:56;;;;;;;;;;;;;;;21.18;27.87;100763.28;5039072;28;19913;-72
2024/01/16 03:26:22;;;;;;;;;;;;;;;21.18;28.03;100757.88;5045835;28;19992;-72
2024/01/16 03:28:47;;;;;;;;;;;;;;;21.19;28.06;100756.00;5050781;28;19939;-73
2024/01/16 03:31:13;;;;;;;;;;;;;;;21.19;27.83;100762.25;5043113;28;20001;-72
2024/01/16 03:33:41;;;;;;;;;;;;;;;21.21;28.04;100760.22;5036534;28;19936;-72
2024/01/16 03:36:07;;;;;;;;;;;;;;;21.22;28.12;100763.75;5035168;28;19974;-73
2024/01/16 03:38:32;;;;;;;;;;;;;;;21.23;28.05;100768.97;5045280;28;20366;-72
2024/01/16 03:40:57;;;;;;;;;;;;;;;21.26;27.80;100769.63;5039215;28;20367;-73
2024/01/16 03:43:22;;;;;;;;;;;;;;;21.27;27.92;100764.03;5034404;28;19920;-73
2024/01/16 03:45:47;;;;;;;;;;;;;;;21.28;27.73;100765.72;5037889;28;19936;-73
2024/01/16 03:48:13;;;;;;;;;;;;;;;21.28;27.79;100759.47;5038162;28;19921;-73
2024/01/16 03:50:38;;;;;;;;;;;;;;;21.28;27.75;100757.63;5037374;28;19914;-72
2024/01/16 03:53:04;;;;;;;;;;;;;;;21.30;27.71;100768.25;5050408;28;19920;-73
2024/01/16 03:55:29;;;;;;;;;;;;;;;21.30;27.68;100763.66;5039990;28;19917;-73
2024/01/16 03:57:54;;;;;;;;;;;;;;;21.29;27.56;100753.03;5033077;28;19917;-72
2024/01/16 04:00:19;;;;;;;;;;;;;;;21.30;27.84;100763.66;5037307;28;19940;-73
2024/01/16 04:02:44;;;;;;;;;;;;;;;21.31;27.66;100762.63;5043830;28;19964;-73
2024/01/16 04:05:10;;;;;;;;;;;;;;;21.32;27.71;100766.19;5042001;28;19928;-73
2024/01/16 04:07:35;;;;;;;;;;;;;;;21.33;27.96;100771.44;5038646;28;20467;-73
2024/01/16 04:10:01;;;;;;;;;;;;;;;21.33;27.64;100767.91;5031588;28;19913;-73
2024/01/16 04:12:26;;;;;;;;;;;;;;;21.31;27.76;100768.03;5042256;28;19944;-73
2024/01/16 04:14:51;;;;;;;;;;;;;;;21.31;27.56;100761.78;5040032;28;19947;-73
2024/01/16 04:17:17;;;;;;;;;;;;;;;21.31;27.74;100765.34;5033173;28;19932;-73
2024/01/16 04:19:42;;;;;;;;;;;;;;;21.32;27.85;100758.09;5034599;28;19918;-73
2024/01/16 04:22:07;;;;;;;;;;;;;;;21.35;27.50;100755.84;5039297;28;20362;-73
2024/01/16 04:24:32;;;;;;;;;;;;;;;21.36;27.72;100756.69;5041166;28;19992;-73
2024/01/16 04:26:57;;;;;;;;;;;;;;;21.36;27.52;100762.94;5049605;28;19918;-73
2024/01/16 04:29:23;;;;;;;;;;;;;;;21.36;27.94;100752.13;5048563;28;19984;-73
2024/01/16 04:31:48;;;;;;;;;;;;;;;21.39;27.45;100761.72;5031406;28;19919;-73
2024/01/16 04:34:13;;;;;;;;;;;;;;;21.39;27.45;100762.56;5029388;28;19917;-73
2024/01/16 04:36:38;;;;;;;;;;;;;;;21.39;27.39;100767.97;5031464;28;19918;-73
2024/01/16 04:39:03;;;;;;;;;;;;;;;21.40;27.50;100757.97;5047135;28;19913;-73
2024/01/16 04:41:29;;;;;;;;;;;;;;;21.39;27.45;100749.03;5045033;28;19918;-73
2024/01/16 04:43:54;;;;;;;;;;;;;;;21.40;27.44;100741.75;5036951;28;19917;-72
2024/01/16 04:46:19;;;;;;;;;;;;;;;21.40;27.49;100745.28;5034495;28;19939;-73
2024/01/16 04:48:44;;;;;;;;;;;;;;;21.40;27.39;100752.56;5043257;28;19917;-73
2024/01/16 04:51:10;;;;;;;;;;;;;;;21.40;27.58;100749.88;5039807;28;19921;-72
2024/01/16 04:53:35;;;;;;;;;;;;;;;21.41;27.63;100751.56;5038429;28;20056;-72
2024/01/16 04:56:00;;;;;;;;;;;;;;;21.42;27.33;100743.25;5036323;28;19917;-73
2024/01/16 04:58:25;;;;;;;;;;;;;;;21.42;27.57;100748.66;5034592;28;19955;-73
2024/01/16 05:00:50;;;;;;;;;;;;;;;21.42;27.70;100739.72;5030088;28;19917;-73
2024/01/16 05:03:16;;;;;;;;;;;;;;;21.44;27.71;100745.75;5038704;28;19956;-73
2024/01/16 05:05:41;;;;;;;;;;;;;;;21.42;27.44;100745.97;5042655;28;19913;-73
2024/01/16 05:08:06;;;;;;;;;;;;;;;21.43;27.67;100736.81;5034936;28;19918;-73
2024/01/16 05:10:31;;;;;;;;;;;;;;;21.46;27.57;100743.72;5036037;28;20647;-72
2024/01/16 05:12:56;;;;;;;;;;;;;;;21.45;27.33;100742.88;5036199;28;19913;-73
2024/01/16 05:15:22;;;;;;;;;;;;;;;21.48;27.49;100735.41;5038668;28;19919;-73
2024/01/16 05:17:47;;;;;;;;;;;;;;;21.46;27.50;100732.91;5035953;28;20361;-74
2024/01/16 05:20:12;;;;;;;;;;;;;;;21.48;27.50;100738.13;5040015;28;19913;-72
2024/01/16 05:22:38;;;;;;;;;;;;;;;21.46;27.54;100733.75;5041045;28;19927;-73
2024/01/16 05:25:04;;;;;;;;;;;;;;;21.46;27.55;100732.91;5037258;28;19928;-73
2024/01/16 05:27:29;;;;;;;;;;;;;;;21.48;27.22;100735.41;5036505;28;20032;-74
2024/01/16 05:29:54;;;;;;;;;;;;;;;21.46;27.61;100733.75;5029241;28;20374;-73
2024/01/16 05:32:19;;;;;;;;;;;;;;;21.46;27.51;100733.75;5037850;28;20510;-72
2024/01/16 05:34:45;;;;;;;;;;;;;;;21.48;27.48;100724.59;5049126;28;20366;-73
2024/01/16 05:37:10;;;;;;;;;;;;;;;21.49;27.28;100731.66;5048123;28;19945;-73
2024/01/16 05:39:36;;;;;;;;;;;;;;;21.48;27.54;100733.53;5041992;28;19917;-74
2024/01/16 05:42:02;;;;;;;;;;;;;;;21.49;27.42;100732.50;5040336;28;19917;-73
2024/01/16 05:44:27;;;;;;;;;;;;;;;21.47;27.54;100737.28;5033655;28;19971;-74
2024/01/16 05:46:52;;;;;;;;;;;;;;;21.46;27.58;100739.16;5034039;28;19914;-73
2024/01/16 05:49:18;;;;;;;;;;;;;;;21.46;27.25;100733.75;5031805;28;19928;-74
2024/01/16 05:51:43;;;;;;;;;;;;;;;21.46;27.38;100724.78;5039282;28;19917;-74
2024/01/16 05:54:08;;;;;;;;;;;;;;;21.47;27.18;100731.88;5036689;28;19921;-73
2024/01/16 05:56:34;;;;;;;;;;;;;;;21.47;27.59;100723.75;5039861;28;20480;-73
2024/01/16 05:58:59;;;;;;;;;;;;;;;21.48;27.40;100724.59;5034901;28;19921;-74
2024/01/16 06:01:24;;;;;;;;;;;;;;;21.48;27.54;100722.72;5043892;28;19919;-74
2024/01/16 06:03:49;;;;;;;;;;;;;;;21.50;27.65;100717.97;5037765;28;20542;-73
2024/01/16 06:06:15;;;;;;;;;;;;;;;21.50;27.72;100720.69;5035085;28;19984;-72
2024/01/16 06:08:40;;;;;;;;;;;;;;;21.50;27.53;100711.72;5045889;28;19932;-72
2024/01/16 06:11:05;;;;;;;;;;;;;;;21.50;27.82;100704.44;5047174;28;19995;-72
2024/01/16 06:13:31;;;;;;;;;;;;;;;21.51;27.84;100706.13;5034773;28;20566;-72
2024/01/16 06:15:57;;;;;;;;;;;;;;;21.51;27.74;100697.16;5041044;28;19971;-72
2024/01/16 06:18:23;;;;;;;;;;;;;;;21.52;27.67;100698.84;5038576;28;19913;-73
2024/01/16 06:20:48;;;;;;;;;;;;;;;21.53;27.84;100704.03;5043508;28;19924;-72
2024/01/16 06:23:13;;;;;;;;;;;;;;;21.54;28.00;100703.03;5041880;28;19936;-72
2024/01/16 06:25:38;;;;;;;;;;;;;;;21.54;27.98;100707.63;5036544;28;19924;-72
2024/01/16 06:28:05;;;;;;;;;;;;;;;21.55;27.72;100709.28;5038267;28;19921;-71
2024/01/16 06:30:30;;;;;;;;;;;;;;;21.56;27.99;100714.50;5045068;28;19917;-72
2024/01/16 06:32:55;;;;;;;;;;;;;;;21.55;27.76;100712.81;5051840;28;19913;-72
2024/01/16 06:35:20;;;;;;;;;;;;;;;21.56;28.14;100710.94;5049589;28;19921;-72
2024/01/16 06:37:45;;;;;;;;;;;;;;;21.57;27.90;100716.16;5040753;28;20005;-76
2024/01/16 06:40:11;;;;;;;;;;;;;;;21.58;28.18;100720.56;5033654;28;20540;-72
2024/01/16 06:42:36;;;;;;;;;;;;;;;21.61;27.94;100722.03;5032399;28;19914;-73
2024/01/16 06:45:01;;;;;;;;;;;;;;;21.62;27.87;100729.13;5050786;28;19926;-73
2024/01/16 06:47:27;;;;;;;;;;;;;;;21.62;28.19;100723.69;5048759;28;20325;-73
2024/01/16 06:49:52;;;;;;;;;;;;;;;21.62;28.11;100729.13;5041132;28;19940;-76
2024/01/16 06:52:17;;;;;;;;;;;;;;;21.62;27.82;100729.13;5037505;28;19944;-73
2024/01/16 06:54:42;;;;;;;;;;;;;;;21.62;27.80;100724.56;5038323;28;19913;-72
2024/01/16 06:57:07;;;;;;;;;;;;;;;21.61;28.08;100722.88;5039423;28;19988;-74
2024/01/16 06:59:33;;;;;;;;;;;;;;;21.62;27.92;100723.69;5041693;28;19914;-72
2024/01/16 07:01:58;;;;;;;;;;;;;;;21.61;28.11;100728.28;5041381;28;19935;-73
2024/01/16 07:04:23;;;;;;;;;;;;;;;21.63;27.92;100730.81;5037477;28;19980;-73
2024/01/16 07:06:48;;;;;;;;;;;;;;;21.62;27.73;100732.69;5035613;28;19925;-72
2024/01/16 07:09:13;;;;;;;;;;;;;;;21.62;27.83;100734.53;5037306;28;19991;-73
2024/01/16 07:11:42;;;;;;;;;;;;;;;21.63;28.12;100737.06;5041841;28;19995;-73
2024/01/16 07:14:07;;;;;;;;;;;;;;;21.65;27.97;100736.84;5041910;28;20385;-73
2024/01/16 07:16:33;;;;;;;;;;;;;;;21.64;28.08;100727.91;5032404;28;19953;-73
2024/01/16 07:18:58;;;;;;;;;;;;;;;21.65;27.92;100736.84;5039568;28;19940;-73
2024/01/16 07:21:23;;;;;;;;;;;;;;;21.17;27.95;100649.94;5047389;28;19917;-73
2024/01/16 07:23:48;;;;;;;;;;;;;;;21.70;28.12;100729.84;5040246;28;19916;-73
2024/01/16 07:26:14;;;;;;;;;;;;;;;21.69;27.84;100738.97;5042147;28;19916;-73
2024/01/16 07:28:39;;;;;;;;;;;;;;;21.70;27.82;100737.94;5036211;28;19918;-73
2024/01/16 07:31:05;;;;;;;;;;;;;;;21.69;28.27;100738.97;5039279;28;19917;-72
2024/01/16 07:33:30;;;;;;;;;;;;;;;21.70;28.02;100734.41;5029767;28;19917;-73
2024/01/16 07:35:55;;;;;;;;;;;;;;;21.73;28.01;100739.44;5033956;28;19917;-72
2024/01/16 07:38:20;;;;;;;;;;;;;;;21.73;28.03;100744.84;5039532;28;19928;-73
2024/01/16 07:40:45;;;;;;;;;;;;;;;21.73;28.18;100746.72;5039224;28;19919;-73
2024/01/16 07:43:11;;;;;;;;;;;;;;;21.71;28.14;100742.34;5041046;28;19917;-73
2024/01/16 07:45:37;;;;;;;;;;;;;;;21.72;28.21;100751.31;5049810;28;19913;-74
2024/01/16 07:48:02;;;;;;;;;;;;;;;21.72;27.95;100754.00;5048029;28;19994;-73
2024/01/16 07:50:27;;;;;;;;;;;;;;;21.73;28.15;100757.56;5046227;28;19917;-73
2024/01/16 07:52:52;;;;;;;;;;;;;;;21.73;27.98;100757.56;5036448;28;19944;-74
2024/01/16 07:55:18;;;;;;;;;;;;;;;21.73;28.32;100754.84;5039233;28;20050;-73
2024/01/16 07:57:43;;;;;;;;;;;;;;;21.74;28.08;100754.66;5041615;28;19927;-74
2024/01/16 08:00:11;;;;;;;;;;;;;;;21.76;28.24;100751.78;5037013;28;20007;-79
2024/01/16 08:02:37;;;;;;;;;;;;;;;21.77;28.32;100754.28;5036425;28;19920;-76
2024/01/16 08:05:02;;;;;;;;;;;;;;;21.78;28.19;100757.81;5035764;28;20680;-78
2024/01/16 08:07:27;;;;;;;;;;;;;;;21.78;28.22;100766.75;5035080;28;19921;-77
2024/01/16 08:09:53;;;;;;;;;;;;;;;21.78;28.10;100758.66;5041373;28;19924;-73
2024/01/16 08:12:18;;;;;;;;;;;;;;;21.81;28.24;100763.69;5030113;28;19922;-73
2024/01/16 08:14:44;;;;;;;;;;;;;;;21.83;28.00;100758.91;5039607;28;19914;-73
2024/01/16 08:17:09;;;;;;;;;;;;;;;21.83;28.01;100768.91;5043737;28;19913;-73
2024/01/16 08:19:34;;;;;;;;;;;;;;;21.85;28.00;100772.28;5028846;28;20247;-72
2024/01/16 08:21:59;;;;;;;;;;;;;;;21.86;28.03;100774.78;5028948;28;19917;-74
2024/01/16 08:24:24;;;;;;;;;;;;;;;21.87;27.81;100775.59;5045108;28;19913;-77
2024/01/16 08:26:49;;;;;;;;;;;;;;;21.88;28.20;100778.16;5034401;28;19939;-76
2024/01/16 08:29:15;;;;;;;;;;;;;;;21.89;27.97;100776.28;5040601;28;19999;-76
2024/01/16 08:31:40;;;;;;;;;;;;;;;21.91;27.88;100776.91;5042650;28;19921;-76
2024/01/16 08:34:05;;;;;;;;;;;;;;;21.91;27.94;100776.91;5041579;28;19916;-74
2024/01/16 08:36:30;;;;;;;;;;;;;;;21.91;28.04;100772.31;5033423;28;19932;-76
2024/01/16 08:38:56;;;;;;;;;;;;;;;21.92;28.04;100770.47;5039956;28;19917;-75
2024/01/16 08:41:21;;;;;;;;;;;;;;;21.89;28.12;100777.09;5049195;28;19924;-76
2024/01/16 08:43:46;;;;;;;;;;;;;;;21.90;28.14;100772.53;5036163;28;19975;-76
2024/01/16 08:46:11;;;;;;;;;;;;;;;21.93;27.84;100778.41;5029626;28;19949;-75
2024/01/16 08:48:37;;;;;;;;;;;;;;;21.94;27.84;100774.66;5030286;28;20040;-75
2024/01/16 08:51:05;;;;;;;;;;;;;;;21.94;27.99;100776.53;5035238;28;20519;-74
2024/01/16 08:53:30;;;;;;;;;;;;;;;21.95;27.92;100770.06;5041286;28;19917;-75
2024/01/16 08:55:55;;;;;;;;;;;;;;;21.95;27.70;100770.91;5034097;28;20365;-74
2024/01/16 08:58:21;;;;;;;;;;;;;;;;;;5043024;28;19917;-75
2024/01/16 09:00:46;;;;;;;;;;;;;;;21.98;27.92;100769.69;5039284;28;19988;-74
2024/01/16 09:03:12;;;;;;;;;;;;;;;22.01;27.82;100776.59;5034194;28;20420;-74
2024/01/16 09:05:38;;;;;;;;;;;;;;;22.01;27.75;100773.91;5034460;28;19917;-75
2024/01/16 09:08:04;;;;;;;;;;;;;;;22.02;28.03;100775.56;5043476;28;19921;-74
2024/01/16 09:10:30;;;;;;;;;;;;;;;22.02;27.92;100781.81;5036835;28;19921;-77
2024/01/16 09:12:55;;;;;;;;;;;;;;;22.02;27.79;100778.28;5036116;28;19920;-76
2024/01/16 09:15:20;;;;;;;;;;;;;;;22.03;27.72;100777.25;5031494;28;19984;-78
2024/01/16 09:17:45;;;;;;;;;;;;;;;22.05;27.78;100775.19;5038112;28;19924;-77
2024/01/16 09:20:10;;;;;;;;;;;;;;;22.05;27.72;100767.91;5037667;28;19971;-77
2024/01/16 09:22:36;;;;;;;;;;;;;;;22.08;27.83;100767.50;5033941;28;20041;-75
2024/01/16 09:25:01;;;;;;;;;;;;;;;22.09;27.70;100771.91;5032593;28;20281;-76
2024/01/16 09:27:26;;;;;;;;;;;;;;;22.12;27.87;100770.66;5045068;28;19916;-76
2024/01/16 09:29:51;;;;;;;;;;;;;;;22.12;27.87;100771.53;5043846;28;19920;-78
2024/01/16 09:32:16;;;;;;;;;;;;;;;22.12;27.87;100774.25;5042246;28;19917;-77
2024/01/16 09:34:42;;;;;;;;;;;;;;;22.15;28.04;100767.63;5031556;28;19924;-76
2024/01/16 09:37:07;;;;;;;;;;;;;;;22.15;27.59;100767.63;5036035;28;19917;-76
2024/01/16 09:39:37;;;;;;;;;;;;;;;22.16;27.62;100762.00;5036947;28;20653;-76
2024/01/16 09:42:03;;;;;;;;;;;;;;;22.17;27.79;100763.69;5038932;28;19913;-76
2024/01/16 09:44:28;;;;;;;;;;;;;;;22.19;27.83;100766.19;5038251;28;19928;-77
2024/01/16 09:46:54;;;;;;;;;;;;;;;22.21;27.97;100764.13;5031514;28;19917;-76
2024/01/16 09:49:19;;;;;;;;;;;;;;;22.21;28.00;100761.41;5035467;28;19947;-76
2024/01/16 09:51:45;;;;;;;;;;;;;;;22.22;27.88;100760.41;5045720;28;20421;-77
2024/01/16 09:54:10;;;;;;;;;;;;;;;22.21;27.64;100759.53;5042095;28;19943;-77
2024/01/16 09:56:38;;;;;;;;;;;;;;;22.23;27.93;100767.47;5043946;28;19916;-78
2024/01/16 09:59:05;;;;;;;;;;;;;;;22.23;27.73;100764.78;5027829;28;19924;-79
2024/01/16 10:01:30;;;;;;;;;;;;;;;22.25;27.62;100754.56;5029116;28;19960;-79
2024/01/16 10:03:55;;;;;;;;;;;;;;;22.25;27.87;100757.28;5037608;28;19971;-76
2024/01/16 10:06:20;;;;;;;;;;;;;;;22.27;27.60;100752.53;5038287;28;19929;-77
2024/01/16 10:08:46;;;;;;;;;;;;;;;22.24;27.62;100749.38;5036519;28;20333;-75
2024/01/16 10:11:11;;;;;;;;;;;;;;;22.27;27.65;100748.97;5036674;28;20364;-79
2024/01/16 10:13:36;;;;;;;;;;;;;;;22.28;27.78;100748.78;5034094;28;19917;-80
2024/01/16 10:16:01;;;;;;;;;;;;;;;22.31;27.77;100745.69;5028228;28;19913;-80
2024/01/16 10:18:30;;;;;;;;;;;;;;;22.31;27.51;100745.69;5035900;28;20370;-79
2024/01/16 10:20:55;;;;;;;;;;;;;;;22.29;27.63;100746.91;5035018;28;20269;-77
2024/01/16 10:23:27;;;;;;;;;;;;;;;22.32;27.66;100741.94;5035510;28;19928;-77
2024/01/16 10:26:06;;;;;;;;;;;;;;;22.36;27.52;100737.81;5032684;28;19921;-76
2024/01/16 10:28:32;;;;;;;;;;;;;;;22.40;27.68;100747.22;5036244;28;19940;-79
2024/01/16 10:31:01;;;;;;;;;;;;;;;22.42;27.66;100736.19;5032812;28;19913;-76
2024/01/16 10:33:27;;;;;;;;;;;;;;;22.44;27.43;100734.97;5025617;28;19928;-78
2024/01/16 10:35:55;;;;;;;;;;;;;;;22.46;27.36;100732.03;5026819;28;19922;-77
2024/01/16 10:38:22;;;;;;;;;;;;;;;22.46;27.54;100727.44;5042793;28;20366;-75
2024/01/16 10:40:47;;;;;;;;;;;;;;;22.46;27.62;100716.63;5042749;28;19913;-77
2024/01/16 10:43:13;;;;;;;;;;;;;;;22.49;27.40;100725.41;5037611;28;19917;-76
2024/01/16 10:45:38;;;;;;;;;;;;;;;22.54;27.56;100720.22;5034601;28;19932;-77
2024/01/16 10:48:04;;;;;;;;;;;;;;;22.55;27.53;100717.31;5031952;28;20296;-77
2024/01/16 10:50:30;;;;;;;;;;;;;;;22.58;27.51;100721.50;5036296;28;19918;-76
2024/01/16 10:52:55;;;;;;;;;;;;;;;22.59;27.36;100720.47;5036409;28;19913;-74
2024/01/16 10:55:24;;;;;;;;;;;;;;;22.59;27.48;100721.28;5037467;28;19917;-76
2024/01/16 10:57:50;;;;;;;;;;;;;;;22.60;27.52;100716.72;5040270;28;19963;-75
2024/01/16 11:00:16;;;;;;;;;;;;;;;22.60;27.10;100714.88;5040763;28;20019;-75
2024/01/16 11:02:44;;;;;;;;;;;;;;;22.59;27.46;100717.75;5049311;28;19967;-74
2024/01/16 11:05:11;;;;;;;;;;;;;;;22.61;27.62;100726.53;5044611;28;20326;-75
2024/01/16 11:07:36;;;;;;;;;;;;;;;22.64;27.55;100718.84;5044922;28;19932;-73
2024/01/16 11:10:02;;;;;;;;;;;;;;;22.67;27.53;100728.44;5042487;28;19921;-73
2024/01/16 11:12:27;;;;;;;;;;;;;;;22.68;27.37;100725.56;5038034;28;19917;-74
2024/01/16 11:14:53;;;;;;;;;;;;;;;22.66;27.47;100726.78;5038403;28;19924;-75
2024/01/16 11:17:20;;;;;;;;;;;;;;;22.67;27.40;100710.31;5040439;28;20673;-73
2024/01/16 11:19:45;;;;;;;;;;;;;;;22.68;27.41;100716.56;5036188;28;19914;-74
2024/01/16 11:22:10;;;;;;;;;;;;;;;22.69;27.60;100716.38;5034208;28;19921;-73
2024/01/16 11:24:35;;;;;;;;;;;;;;;22.71;27.52;100716.19;5047204;28;19913;-73
2024/01/16 11:27:01;;;;;;;;;;;;;;;22.74;27.32;100712.25;5033390;28;20469;-73
2024/01/16 11:29:26;;;;;;;;;;;;;;;22.75;27.27;100703.06;5035874;28;19917;-74
2024/01/16 11:31:51;;;;;;;;;;;;;;;22.75;27.58;100698.47;5043827;28;19984;-77
2024/01/16 11:34:16;;;;;;;;;;;;;;;22.76;27.26;100689.31;5041407;28;19921;-75
2024/01/16 11:36:41;;;;;;;;;;;;;;;22.81;27.08;100694.13;5047529;28;19916;-76
2024/01/16 11:39:06;;;;;;;;;;;;;;;22.84;27.29;100699.16;5044017;28;19913;-76
2024/01/16 11:41:48;;;;;;;;;;;;;;;22.87;27.33;100698.75;5030408;28;19924;-76
2024/01/16 11:44:33;;;;;;;;;;;;;;;22.91;27.02;100702.78;5040950;28;19917;-74
2024/01/16 11:47:02;;;;;;;;;;;;;;;22.91;27.18;100684.63;5032975;28;19921;-75
2024/01/16 11:49:27;;;;;;;;;;;;;;;22.93;27.08;100682.53;5039432;28;19921;-76
2024/01/16 11:51:53;;;;;;;;;;;;;;;22.94;27.29;100680.69;5045903;28;19923;-76
2024/01/16 11:54:18;;;;;;;;;;;;;;;22.94;27.28;100673.41;5037626;28;19913;-79
2024/01/16 11:56:53;;;;;;;;;;;;;;;23.01;27.15;100668.00;5032208;28;19924;-74
2024/01/16 11:59:48;;;;;;;;;;;;;;;23.06;27.04;100672.81;5040519;28;20371;-76
2024/01/16 12:02:25;;;;;;;;;;;;;;;23.07;26.80;100667.19;5042754;28;19917;-78
2024/01/16 12:04:58;;;;;;;;;;;;;;;23.12;27.14;100666.59;5027566;28;19924;-77
2024/01/16 12:07:23;;;;;;;;;;;;;;;23.13;27.16;100663.66;5035812;28;19917;-78
2024/01/16 12:09:49;;;;;;;;;;;;;;;23.15;26.78;100658.03;5041203;28;19921;-77
2024/01/16 12:12:15;;;;;;;;;;;;;;;23.14;27.02;100672.63;5039484;28;19920;-78
2024/01/16 12:14:40;;;;;;;;;;;;;;;23.14;26.84;100657.19;5047033;28;19979;-78
2024/01/16 12:17:12;;;;;;;;;;;;;;;23.15;27.05;100658.91;5044650;28;19987;-78
2024/01/16 12:19:40;;;;;;;;;;;;;;;23.18;27.06;100653.03;5035612;28;20325;-79
2024/01/16 12:22:05;;;;;;;;;;;;;;;23.21;26.61;100649.09;5035689;28;19917;-79
2024/01/16 12:24:30;;;;;;;;;;;;;;;23.22;26.82;100647.22;5028131;28;19926;-79
2024/01/16 12:26:58;;;;;;;;;;;;;;;23.24;26.69;100645.16;5045658;28;19917;-79
2024/01/16 12:29:23;;;;;;;;;;;;;;;23.24;26.79;100645.16;5040594;28;19921;-77